• Join FlightAware (Why Join?)
  • Login
  • US Flag 
06:59AM EDT


 

Airport Tracker/Info


-or-


 

Live Flight TrackerFlight Track Log ✈ USC110 ✈ 20.07.2013 ✈ KPWK - KSUS

Flight Track Log - Related Links

Times and Time Zones

All times are in EDT time to prevent confusion due to time zone crossing. See the USC110 flight status page for this flight to view local times or setup timezone preferences in your user account.

Time Position Orientation Groundspeed Altitude Reporting Facility
EDT Latitude Longitude Course Direction KTS MPH feet Rate Location/Type
07:09PM 42.1500 -87.9333 191° South 106 122 1,800  Level Chicago TRACON
07:10PM 42.1833 -87.9500 340° North 114 131 2,800 780 Climbing Chicago TRACON
07:11PM 42.2000 -87.9833 304° West 127 146 3,400 600 Climbing Chicago TRACON
07:12PM 42.2000 -88.0333 270° West 136 157 4,000 660 Climbing Chicago TRACON
07:13PM 42.1667 -88.0667 217° Southwest 139 160 4,800 780 Climbing Chicago TRACON
07:14PM 42.1500 -88.1000 236° Southwest 131 151 5,600 540 Climbing Chicago TRACON
07:15PM 41.8806 -88.0987 191° South  Level Estimated
07:15PM 42.1000 -88.0833 166° South 147 169 6,000  Level Chicago TRACON
07:16PM 42.0667 -88.0833 180° South 164 189 6,000  Level Chicago TRACON
07:17PM 42.0167 -88.0833 180° South 170 196 6,000  Level Chicago TRACON
07:18PM 41.9667 -88.0833 180° South 172 198 6,000  Level Chicago TRACON
07:19PM 41.9167 -88.0833 180° South 171 197 6,000 480 Level Chicago TRACON
07:20PM 41.8833 -88.0667 160° South 135 155 7,000 840 Climbing Chicago TRACON
07:21PM 41.8639 -88.0725 193° South 137 158 7,400 600 Climbing Chicago Center
07:22PM 41.8289 -88.0686 175° South 125 144 8,000 240 Climbing Chicago Center
07:23PM 41.7836 -88.0653 177° South 149 171 7,900 -60 Descending Chicago Center
07:24PM 41.7350 -88.0600 175° South 171 197 7,900  Level Chicago Center
07:25PM 41.6769 -88.0575 178° South 175 201 7,900  Level Chicago Center
07:26PM 41.6308 -88.0781 198° South 175 201 7,900  Level Chicago Center
07:27PM 41.5867 -88.1006 201° Southwest 172 198 7,900  Level Chicago Center
07:28PM 41.5414 -88.1203 198° South 173 199 7,900  Level Chicago Center
07:29PM 41.4972 -88.1411 199° South 172 198 7,900  Level Chicago Center
07:30PM 41.4442 -88.1642 198° South 172 198 7,900  Level Chicago Center
07:31PM 41.4000 -88.1836 198° South 171 197 7,900  Level Chicago Center
07:32PM 41.3558 -88.2039 199° South 171 197 7,900  Level Chicago Center
07:33PM 41.3114 -88.2236 198° South 170 196 7,900  Level Chicago Center
07:35PM 41.2581 -88.2472 198° South 172 198 7,900  Level Chicago Center
07:36PM 41.2136 -88.2683 200° South 171 197 7,900  Level Chicago Center
07:37PM 41.1689 -88.2886 199° South 171 197 7,900  Level Chicago Center
07:38PM 41.1244 -88.3067 197° South 169 194 7,900  Level Chicago Center
07:39PM 41.0797 -88.3264 198° South 170 196 7,900  Level Chicago Center
07:40PM 41.0350 -88.3475 200° South 171 197 7,900  Level Chicago Center
07:41PM 40.9806 -88.3708 198° South 172 198 8,000  Climbing Chicago Center
07:42PM 40.9356 -88.3911 199° South 173 199 8,000  Level Chicago Center
07:43PM 40.8908 -88.4125 200° South 171 197 8,000  Level Chicago Center
07:44PM 40.8472 -88.4322 199° South 168 193 8,000  Level Chicago Center
07:45PM 40.8019 -88.4528 199° South 171 197 8,000  Level Chicago Center
07:46PM 40.7608 -88.5011 222° Southwest 168 193 8,000  Level Chicago Center
07:47PM 40.7261 -88.5389 220° Southwest 168 193 8,000  Level Chicago Center
07:48PM 40.6886 -88.5781 218° Southwest 171 197 8,000  Level Chicago Center
07:49PM 40.6494 -88.6181 218° Southwest 172 198 8,000  Level Chicago Center
07:50PM 40.6142 -88.6581 221° Southwest 170 196 8,000  Level Chicago Center
07:51PM 40.5781 -88.6964 219° Southwest 168 193 8,000  Level Chicago Center
07:52PM 40.5411 -88.7350 218° Southwest 170 196 8,000  Level Chicago Center
07:53PM 40.4967 -88.7814 218° Southwest 170 196 8,000  Level Chicago Center
07:54PM 40.4583 -88.8194 217° Southwest 171 197 8,000  Level Chicago Center
07:55PM 40.4236 -88.8583 220° Southwest 167 192 8,000  Level Chicago Center
07:56PM 40.3878 -88.8969 219° Southwest 166 191 8,000  Level Chicago Center
07:57PM 40.3506 -88.9342 217° Southwest 167 192 8,000  Level Chicago Center
07:58PM 40.3136 -88.9728 219° Southwest 168 193 8,000  Level Chicago Center
07:59PM 40.2769 -89.0106 218° Southwest 168 193 8,000  Level Chicago Center
08:00PM 40.2325 -89.0569 219° Southwest 169 194 8,000  Level Chicago Center
08:01PM 40.1967 -89.0958 220° Southwest 168 193 8,000  Level Chicago Center
08:02PM 40.1611 -89.1336 219° Southwest 167 192 8,000  Level Chicago Center
08:03PM 40.1247 -89.1708 218° Southwest 166 191 8,000  Level Chicago Center
08:04PM 40.0892 -89.2092 220° Southwest 166 191 8,000  Level Chicago Center
08:05PM 40.0464 -89.2536 219° Southwest 165 190 8,000  Level Kansas City Center
08:06PM 40.0097 -89.2903 217° Southwest 165 190 8,000  Level Kansas City Center
08:07PM 39.9725 -89.3275 217° Southwest 168 193 8,000  Level Kansas City Center
08:09PM 39.9369 -89.3667 220° Southwest 167 192 8,000  Level Kansas City Center
08:10PM 39.9000 -89.4042 218° Southwest 167 192 8,000  Level Kansas City Center
08:11PM 39.8631 -89.4431 219° Southwest 170 196 8,000  Level Kansas City Center
08:12PM 39.8258 -89.4819 219° Southwest 171 197 8,000  Level Kansas City Center
08:13PM 39.7889 -89.5192 218° Southwest 169 194 8,000 -240 Level Kansas City Center
08:14PM 39.7503 -89.5597 219° Southwest 175 201 7,600 -540 Descending Kansas City Center
08:15PM 39.7056 -89.6053 218° Southwest 181 208 7,000 -600 Descending Kansas City Center
08:16PM 39.6642 -89.6475 218° Southwest 187 215 6,400 -600 Descending Kansas City Center
08:17PM 39.6228 -89.6903 219° Southwest 189 217 5,800 -600 Descending Kansas City Center
08:18PM 39.5811 -89.7358 220° Southwest 194 223 5,200 -660 Descending Kansas City Center
08:19PM 39.5389 -89.7756 216° Southwest 191 220 4,500 -600 Descending Kansas City Center
08:20PM 39.4972 -89.8186 219° Southwest 191 220 4,000 -240 Descending Kansas City Center
08:21PM 39.4606 -89.8564 219° Southwest 176 203 4,100  Climbing Kansas City Center
08:22PM 39.4219 -89.8925 216° Southwest 171 197 4,100  Level Kansas City Center
08:23PM 39.3853 -89.9281 217° Southwest 167 192 4,100  Level Kansas City Center
08:24PM 39.3483 -89.9656 218° Southwest 168 193 4,100  Level Kansas City Center
08:25PM 39.3111 -90.0019 217° Southwest 168 193 4,100  Level Kansas City Center
08:26PM 39.2736 -90.0367 216° Southwest 167 192 4,100  Level Kansas City Center
08:27PM 39.2225 -90.0681 205° Southwest 169 194 4,100 -60 Level Kansas City Center
08:28PM 39.1822 -90.0944 207° Southwest 165 190 4,000  Descending Kansas City Center
08:29PM 39.1419 -90.1186 205° Southwest 162 186 4,100  Climbing Kansas City Center
08:30PM 39.1039 -90.1536 216° Southwest 166 191 4,100  Level Kansas City Center
08:31PM 39.0742 -90.2006 231° Southwest 169 194 4,100  Level Kansas City Center
08:32PM 39.0428 -90.2444 227° Southwest 168 193 4,100  Level Kansas City Center
08:33PM 39.0111 -90.2861 226° Southwest 166 191 4,100 -720 Level Kansas City Center
08:34PM 38.9778 -90.3294 225° Southwest 167 192 2,700 -840 Descending Kansas City Center
08:35PM 38.9433 -90.3775 227° Southwest 175 201 2,400 -180 Descending Kansas City Center
08:36PM 38.9100 -90.4225 226° Southwest 176 203 2,400  Level Kansas City Center
08:37PM 38.8750 -90.4644 223° Southwest 174 200 2,400  Level Kansas City Center
08:38PM 38.8325 -90.5125 221° Southwest 172 198 2,400  Level Kansas City Center
08:39PM 38.7956 -90.5500 218° Southwest 171 197 2,400  Level Kansas City Center
08:40PM 38.7581 -90.5875 218° Southwest 172 198 2,400  Level Kansas City Center
08:41PM 38.7214 -90.6256 219° Southwest 172 198 2,400 -420 Level Kansas City Center
08:42PM 38.6892 -90.6753 230° Southwest 178 205 1,600 -840 Descending Kansas City Center
08:43PM 38.6556 -90.6747 179° South 169 194 800 -540 Descending Kansas City Center
08:44PM 38.6597 -90.6375 82° East 148 170 600 -240 Descending Kansas City Center